createdAt,value
2016-07-27T00:00:15.694Z,24.55
2016-07-27T00:01:15.720Z,24.47
2016-07-27T00:02:15.746Z,24.5
2016-07-27T00:03:15.775Z,24.53
2016-07-27T00:04:15.804Z,24.52
2016-07-27T00:05:15.826Z,24.57
2016-07-27T00:07:15.881Z,24.47
2016-07-27T00:08:15.918Z,24.5
2016-07-27T00:09:15.936Z,24.5
2016-07-27T00:10:15.962Z,24.49
2016-07-27T00:11:16.695Z,24.49
2016-07-27T00:12:16.014Z,24.5
2016-07-27T00:13:16.045Z,24.53
2016-07-27T00:14:16.072Z,24.5
2016-07-27T00:15:16.098Z,24.47
2016-07-27T00:16:16.130Z,24.47
2016-07-27T00:17:16.150Z,24.46
2016-07-27T00:18:16.177Z,24.5
2016-07-27T00:19:16.206Z,24.47
2016-07-27T00:20:16.231Z,24.47
2016-07-27T00:21:16.259Z,24.47
2016-07-27T00:22:16.288Z,24.5
2016-07-27T00:23:16.313Z,24.47
2016-07-27T00:24:16.341Z,24.46
2016-07-27T00:25:16.370Z,24.46
2016-07-27T00:26:16.396Z,24.52
2016-07-27T00:27:16.418Z,24.47
2016-07-27T00:28:16.448Z,24.57
2016-07-27T00:29:16.473Z,24.52
2016-07-27T00:30:16.503Z,24.49
2016-07-27T00:31:16.535Z,24.5
2016-07-27T00:32:16.552Z,24.45
2016-07-27T00:33:16.586Z,24.43
2016-07-27T00:34:16.609Z,24.47
2016-07-27T00:35:16.633Z,24.55
2016-07-27T00:36:16.667Z,24.5
2016-07-27T00:37:16.687Z,24.43
2016-07-27T00:38:16.716Z,24.46
2016-07-27T00:39:16.742Z,24.46
2016-07-27T00:40:16.769Z,24.43
2016-07-27T00:41:16.798Z,24.47
2016-07-27T00:42:16.823Z,24.46
2016-07-27T00:43:16.858Z,24.5
2016-07-27T00:44:16.876Z,24.5
2016-07-27T00:45:16.905Z,24.43
2016-07-27T00:46:16.929Z,24.4
2016-07-27T00:47:16.960Z,24.46
2016-07-27T00:48:16.987Z,24.42
2016-07-27T00:49:17.014Z,24.5
2016-07-27T00:50:17.038Z,24.47
2016-07-27T00:51:17.762Z,24.42
2016-07-27T00:52:17.092Z,24.42
2016-07-27T00:53:17.119Z,24.4
2016-07-27T00:54:17.147Z,24.4
2016-07-27T00:55:17.173Z,24.39
2016-07-27T00:56:17.197Z,24.43
2016-07-27T00:57:17.227Z,24.4
2016-07-27T00:58:17.253Z,24.45
2016-07-27T00:59:17.281Z,24.45
2016-07-27T01:00:17.322Z,24.58
2016-07-27T01:01:17.332Z,24.39
2016-07-27T01:02:17.360Z,24.42
2016-07-27T01:03:17.387Z,24.46
2016-07-27T01:04:17.415Z,24.47
2016-07-27T01:05:17.440Z,24.39
2016-07-27T01:06:17.465Z,24.37
2016-07-27T01:07:17.494Z,24.42
2016-07-27T01:08:17.520Z,24.46
2016-07-27T01:09:17.549Z,24.42
2016-07-27T01:10:17.575Z,24.43
2016-07-27T01:11:17.603Z,24.4
2016-07-27T01:12:17.630Z,24.39
2016-07-27T01:13:17.656Z,24.42
2016-07-27T01:14:17.681Z,24.45
2016-07-27T01:15:17.710Z,24.43
2016-07-27T01:16:17.737Z,24.37
2016-07-27T01:17:17.765Z,24.35
2016-07-27T01:18:17.789Z,24.35
2016-07-27T01:19:17.816Z,24.4
2016-07-27T01:20:17.845Z,24.39
2016-07-27T01:21:17.872Z,24.37
2016-07-27T01:22:17.897Z,24.35
2016-07-27T01:23:17.926Z,24.4
2016-07-27T01:24:17.949Z,24.39
2016-07-27T01:25:17.978Z,24.39
2016-07-27T01:26:18.009Z,24.49
2016-07-27T01:27:18.034Z,24.27
2016-07-27T01:28:18.061Z,24.4
2016-07-27T01:29:18.084Z,24.42
2016-07-27T01:30:18.117Z,24.42
2016-07-27T01:31:18.140Z,24.4
2016-07-27T01:32:18.866Z,24.37
2016-07-27T01:33:18.190Z,24.45
2016-07-27T01:34:18.224Z,24.27
2016-07-27T01:35:18.247Z,24.39
2016-07-27T01:36:18.273Z,24.35
2016-07-27T01:37:18.301Z,24.24
2016-07-27T01:38:18.329Z,24.39
2016-07-27T01:39:18.355Z,24.32
2016-07-27T01:40:18.380Z,24.32
2016-07-27T01:41:18.408Z,24.35
2016-07-27T01:42:18.434Z,24.27
2016-07-27T01:43:18.461Z,24.42
2016-07-27T01:44:18.489Z,24.32
2016-07-27T01:45:18.516Z,24.34
2016-07-27T01:46:18.543Z,24.32
2016-07-27T01:47:18.568Z,24.28
2016-07-27T01:48:18.596Z,24.42
2016-07-27T01:49:18.621Z,24.2
2016-07-27T01:50:18.650Z,24.28
2016-07-27T01:51:18.683Z,24.28
2016-07-27T01:52:18.702Z,24.25
2016-07-27T01:53:18.735Z,24.3
2016-07-27T01:54:18.752Z,24.35
2016-07-27T01:55:18.783Z,24.25
2016-07-27T01:56:18.809Z,24.31
2016-07-27T01:57:18.834Z,24.24
2016-07-27T01:58:18.863Z,24.32
2016-07-27T01:59:18.887Z,24.16
2016-07-27T02:00:18.921Z,24.28
2016-07-27T02:01:18.946Z,24.25
2016-07-27T02:02:18.971Z,24.25
2016-07-27T02:03:18.998Z,24.27
2016-07-27T02:04:19.024Z,24.3
2016-07-27T02:05:19.049Z,24.25
2016-07-27T02:06:19.078Z,24.16
2016-07-27T02:07:19.104Z,24.27
2016-07-27T02:08:19.129Z,24.28
2016-07-27T02:09:19.157Z,24.15
2016-07-27T02:10:19.184Z,24.18
2016-07-27T02:11:19.212Z,24.21
2016-07-27T02:12:19.239Z,24.18
2016-07-27T02:13:19.272Z,24.12
2016-07-27T02:14:19.291Z,24.16
2016-07-27T02:15:19.317Z,24.18
2016-07-27T02:16:19.343Z,24.15
2016-07-27T02:17:19.373Z,24.12
2016-07-27T02:18:19.399Z,24.08
2016-07-27T02:19:19.426Z,24.12
2016-07-27T02:20:19.449Z,24.13
2016-07-27T02:21:19.480Z,24.06
2016-07-27T02:22:19.503Z,24.13
2016-07-27T02:23:19.542Z,24.1
2016-07-27T02:24:19.558Z,24.09
2016-07-27T02:25:19.584Z,24.05
2016-07-27T02:26:19.614Z,24.03
2016-07-27T02:27:19.639Z,24.06
2016-07-27T02:28:19.666Z,24.12
2016-07-27T02:29:19.692Z,24.03
2016-07-27T02:30:19.718Z,24.1
2016-07-27T02:31:19.750Z,24.08
2016-07-27T02:32:19.771Z,23.94
2016-07-27T02:33:19.801Z,23.98
2016-07-27T02:34:19.826Z,23.98
2016-07-27T02:35:19.849Z,24
2016-07-27T02:36:19.879Z,24.03
2016-07-27T02:37:19.907Z,24.06
2016-07-27T02:38:19.932Z,23.98
2016-07-27T02:39:19.958Z,23.94
2016-07-27T02:40:19.991Z,24.02
2016-07-27T02:41:20.015Z,23.95
2016-07-27T02:42:20.036Z,23.94
2016-07-27T02:43:20.063Z,23.95
2016-07-27T02:44:20.092Z,23.94
2016-07-27T02:45:20.117Z,23.94
2016-07-27T02:46:20.148Z,23.94
2016-07-27T02:47:20.172Z,23.9
2016-07-27T02:48:20.197Z,23.97
2016-07-27T02:49:20.232Z,23.94
2016-07-27T02:50:20.248Z,23.93
2016-07-27T02:51:20.281Z,23.95
2016-07-27T02:52:20.303Z,23.93
2016-07-27T02:53:20.331Z,23.94
2016-07-27T02:54:20.357Z,23.95
2016-07-27T02:55:20.382Z,23.98
2016-07-27T02:56:20.411Z,23.9
2016-07-27T02:57:20.436Z,23.94
2016-07-27T02:58:20.465Z,23.95
2016-07-27T02:59:20.488Z,23.94
2016-07-27T03:00:20.514Z,23.88
2016-07-27T03:01:20.542Z,23.85
2016-07-27T03:02:20.569Z,23.85
2016-07-27T03:03:20.610Z,23.85
2016-07-27T03:04:20.624Z,23.85
2016-07-27T03:05:20.653Z,23.83
2016-07-27T03:06:20.685Z,23.9
2016-07-27T03:07:20.704Z,23.85
2016-07-27T03:08:20.727Z,23.85
2016-07-27T03:09:20.751Z,23.79
2016-07-27T03:10:20.780Z,23.88
2016-07-27T03:11:20.806Z,23.93
2016-07-27T03:12:20.831Z,23.85
2016-07-27T03:13:20.860Z,23.84
2016-07-27T03:14:20.886Z,23.83
2016-07-27T03:15:20.913Z,23.84
2016-07-27T03:16:20.940Z,23.85
2016-07-27T03:17:20.968Z,23.83
2016-07-27T03:18:20.990Z,23.76
2016-07-27T03:19:21.016Z,23.83
2016-07-27T03:20:21.046Z,23.84
2016-07-27T03:21:21.072Z,23.87
2016-07-27T03:22:21.101Z,23.79
2016-07-27T03:23:21.122Z,23.93
2016-07-27T03:24:21.150Z,23.87
2016-07-27T03:25:21.179Z,23.85
2016-07-27T03:26:21.202Z,23.84
2016-07-27T03:27:21.232Z,23.78
2016-07-27T03:28:21.261Z,23.73
2016-07-27T03:29:21.284Z,23.88
2016-07-27T03:30:21.311Z,23.8
2016-07-27T03:31:21.337Z,23.87
2016-07-27T03:32:21.360Z,23.79
2016-07-27T03:33:21.387Z,23.76
2016-07-27T03:34:21.416Z,23.78
2016-07-27T03:35:21.445Z,23.73
2016-07-27T03:36:21.469Z,23.8
2016-07-27T03:37:21.494Z,23.85
2016-07-27T03:38:21.521Z,23.84
2016-07-27T03:39:21.554Z,23.78
2016-07-27T03:40:21.568Z,23.84
2016-07-27T03:41:21.599Z,23.78
2016-07-27T03:42:21.635Z,23.78
2016-07-27T03:43:21.652Z,23.79
2016-07-27T03:44:21.679Z,23.83
2016-07-27T03:45:21.702Z,23.8
2016-07-27T03:46:21.730Z,23.76
2016-07-27T03:47:21.762Z,23.75
2016-07-27T03:48:21.782Z,23.79
2016-07-27T03:49:21.809Z,23.78
2016-07-27T03:50:21.837Z,23.85
2016-07-27T03:51:21.873Z,23.9
2016-07-27T03:52:21.888Z,23.79
2016-07-27T03:53:21.913Z,23.84
2016-07-27T03:54:21.942Z,23.85
2016-07-27T03:55:21.968Z,23.87
2016-07-27T03:56:21.995Z,23.88
2016-07-27T03:57:22.022Z,23.83
2016-07-27T03:58:22.745Z,23.8
2016-07-27T03:59:22.770Z,23.8
2016-07-27T04:00:22.098Z,23.8
2016-07-27T04:01:22.127Z,23.79
2016-07-27T04:02:22.149Z,23.78
2016-07-27T04:03:22.179Z,23.73
2016-07-27T04:04:22.204Z,23.76
2016-07-27T04:05:22.229Z,23.83
2016-07-27T04:06:22.258Z,23.76
2016-07-27T04:07:22.283Z,23.84
2016-07-27T04:08:22.309Z,23.8
2016-07-27T04:09:22.336Z,23.83
2016-07-27T04:10:22.362Z,23.84
2016-07-27T04:11:22.390Z,23.78
2016-07-27T04:12:22.425Z,23.76
2016-07-27T04:13:22.437Z,23.75
2016-07-27T04:14:22.467Z,23.79
2016-07-27T04:15:22.493Z,23.72
2016-07-27T04:16:22.517Z,23.76
2016-07-27T04:17:22.549Z,23.76
2016-07-27T04:18:22.573Z,23.75
2016-07-27T04:19:22.595Z,23.78
2016-07-27T04:20:22.631Z,23.83
2016-07-27T04:21:22.649Z,23.87
2016-07-27T04:22:22.686Z,23.88
2016-07-27T04:23:22.708Z,23.76
2016-07-27T04:24:23.425Z,23.76
2016-07-27T04:25:22.755Z,23.85
2016-07-27T04:26:22.780Z,23.83
2016-07-27T04:27:22.808Z,23.8
2016-07-27T04:28:22.829Z,23.79
2016-07-27T04:29:22.858Z,23.79
2016-07-27T04:30:22.884Z,23.78
2016-07-27T04:31:22.912Z,23.73
2016-07-27T04:32:22.944Z,23.76
2016-07-27T04:33:22.976Z,23.79
2016-07-27T04:34:22.991Z,23.85
2016-07-27T04:35:23.015Z,23.84
2016-07-27T04:36:23.043Z,23.75
2016-07-27T04:37:23.082Z,23.8
2016-07-27T04:38:23.095Z,23.87
2016-07-27T04:39:23.126Z,23.83
2016-07-27T04:40:23.147Z,23.79
2016-07-27T04:41:23.175Z,23.84
2016-07-27T04:42:23.198Z,23.85
2016-07-27T04:43:23.226Z,23.8
2016-07-27T04:44:23.256Z,23.85
2016-07-27T04:45:23.280Z,23.91
2016-07-27T04:46:23.304Z,23.91
2016-07-27T04:47:23.332Z,23.97
2016-07-27T04:48:23.357Z,23.98
2016-07-27T04:49:23.381Z,23.95
2016-07-27T04:50:23.410Z,24.02
2016-07-27T04:51:23.436Z,24.06
2016-07-27T04:52:23.476Z,24.02
2016-07-27T04:53:23.487Z,23.97
2016-07-27T04:54:23.511Z,23.93
2016-07-27T04:55:23.541Z,24
2016-07-27T04:56:23.566Z,24.05
2016-07-27T04:57:23.593Z,24.06
2016-07-27T04:58:23.616Z,24.09
2016-07-27T04:59:23.644Z,24.08
2016-07-27T05:00:23.679Z,24.09
2016-07-27T05:01:23.696Z,24.08
2016-07-27T05:02:23.724Z,23.97
2016-07-27T05:03:23.747Z,24.06
2016-07-27T05:04:23.776Z,24.09
2016-07-27T05:05:23.802Z,24.12
2016-07-27T05:06:23.828Z,24.09
2016-07-27T05:08:23.877Z,24.15
2016-07-27T05:09:23.906Z,24.15
2016-07-27T05:10:23.931Z,24.21
2016-07-27T05:11:23.958Z,24.13
2016-07-27T05:12:23.986Z,24.16
2016-07-27T05:13:24.012Z,24.18
2016-07-27T05:14:24.039Z,24.18
2016-07-27T05:15:24.065Z,24.2
2016-07-27T05:16:24.090Z,24.21
2016-07-27T05:17:24.116Z,24.21
2016-07-27T05:18:24.140Z,24.22
2016-07-27T05:19:24.173Z,24.16
2016-07-27T05:20:24.195Z,24.18
2016-07-27T05:21:24.222Z,24.15
2016-07-27T05:23:24.275Z,24.1
2016-07-27T05:24:24.300Z,24.22
2016-07-27T05:25:24.328Z,24.21
2016-07-27T05:26:24.352Z,24.2
2016-07-27T05:27:24.377Z,24.16
2016-07-27T05:28:24.408Z,24.31
2016-07-27T05:29:24.431Z,24.28
2016-07-27T05:30:24.459Z,24.3
2016-07-27T05:31:24.483Z,24.25
2016-07-27T05:32:24.513Z,24.32
2016-07-27T05:33:24.539Z,24.25
2016-07-27T05:34:24.565Z,24.27
2016-07-27T05:35:24.591Z,24.25
2016-07-27T05:36:24.615Z,24.31
2016-07-27T05:38:24.668Z,24.35
2016-07-27T05:39:24.697Z,24.35
2016-07-27T05:40:24.722Z,24.34
2016-07-27T05:41:24.747Z,24.34
2016-07-27T05:42:24.777Z,24.28
2016-07-27T05:43:24.813Z,24.37
2016-07-27T05:44:24.827Z,24.4
2016-07-27T05:45:24.855Z,24.43
2016-07-27T05:46:24.880Z,24.42
2016-07-27T05:47:24.908Z,24.43
2016-07-27T05:48:24.934Z,24.52
2016-07-27T05:49:24.960Z,24.35
2016-07-27T05:50:24.996Z,24.35
2016-07-27T05:51:25.014Z,24.42
2016-07-27T05:53:25.771Z,24.4
2016-07-27T05:54:25.091Z,24.46
2016-07-27T05:55:25.127Z,24.42
2016-07-27T05:56:25.144Z,24.57
2016-07-27T05:57:25.173Z,24.77
2016-07-27T05:58:25.201Z,24.64
2016-07-27T05:59:25.227Z,24.8
2016-07-27T06:00:25.251Z,25.02
2016-07-27T06:01:25.283Z,25
2016-07-27T06:02:25.311Z,25.03
2016-07-27T06:03:25.333Z,25.1
2016-07-27T06:04:25.364Z,25.14
2016-07-27T06:05:25.391Z,25.1
2016-07-27T06:06:25.414Z,25.05
2016-07-27T06:08:25.468Z,25.06
2016-07-27T06:09:25.495Z,25.02
2016-07-27T06:10:25.519Z,24.99
2016-07-27T06:11:25.551Z,24.99
2016-07-27T06:12:25.574Z,24.93
2016-07-27T06:13:25.601Z,24.93
2016-07-27T06:14:25.627Z,24.95
2016-07-27T06:15:25.655Z,24.95
2016-07-27T06:16:25.679Z,24.96
2016-07-27T06:17:25.707Z,24.91
2016-07-27T06:18:25.733Z,24.98
2016-07-27T06:19:25.762Z,25
2016-07-27T06:20:26.486Z,25.13
2016-07-27T06:21:25.815Z,25.14
2016-07-27T06:23:25.871Z,25.43
2016-07-27T06:24:25.897Z,25.76
2016-07-27T06:25:25.925Z,25.65
2016-07-27T06:26:25.950Z,25.95
2016-07-27T06:27:25.977Z,26.39
2016-07-27T06:28:26.005Z,26.29
2016-07-27T06:29:26.041Z,26.28
2016-07-27T06:30:26.057Z,26.06
2016-07-27T06:31:26.088Z,25.94
2016-07-27T06:32:26.113Z,25.98
2016-07-27T06:33:26.140Z,26.47
2016-07-27T06:34:26.174Z,26.07
2016-07-27T06:35:26.199Z,25.91
2016-07-27T06:36:26.225Z,25.91
2016-07-27T06:38:26.279Z,26.25
2016-07-27T06:39:26.309Z,26.1
2016-07-27T06:40:26.334Z,26.05
2016-07-27T06:41:26.367Z,26.29
2016-07-27T06:42:26.393Z,26.37
2016-07-27T06:43:26.421Z,27.03
2016-07-27T06:44:26.447Z,26.81
2016-07-27T06:45:26.473Z,26.84
2016-07-27T06:46:26.504Z,27.65
2016-07-27T06:47:26.532Z,28.07
2016-07-27T06:48:26.559Z,28.48
2016-07-27T06:49:26.589Z,28.59
2016-07-27T06:50:26.617Z,28.78
2016-07-27T06:51:26.645Z,28.85
2016-07-27T06:53:26.703Z,29.05
2016-07-27T06:54:26.736Z,29.09
2016-07-27T06:55:26.760Z,29.3
2016-07-27T06:56:26.787Z,29.37
2016-07-27T06:57:26.820Z,29.42
2016-07-27T06:58:26.849Z,29.41
2016-07-27T06:59:26.872Z,28.98
2016-07-27T07:00:26.902Z,29.51
2016-07-27T07:01:26.930Z,29.63
2016-07-27T07:02:26.960Z,29.87
2016-07-27T07:03:26.989Z,30.13
2016-07-27T07:04:27.016Z,30.24
2016-07-27T07:05:27.052Z,30.47
2016-07-27T07:06:27.074Z,30.58
2016-07-27T07:08:27.135Z,30.72
2016-07-27T07:09:27.161Z,30.82
2016-07-27T07:10:27.194Z,31.04
2016-07-27T07:11:27.221Z,31.12
2016-07-27T07:12:27.255Z,31.12
2016-07-27T07:13:27.282Z,31.28
2016-07-27T07:14:27.309Z,30.92
2016-07-27T07:15:27.346Z,31.26
2016-07-27T07:16:27.374Z,31.44
2016-07-27T07:17:27.398Z,31.61
2016-07-27T07:18:27.431Z,31.75
2016-07-27T07:19:27.461Z,31.81
2016-07-27T07:20:27.491Z,32.04
2016-07-27T07:21:27.525Z,32.03
2016-07-27T07:23:27.582Z,31.51
2016-07-27T07:24:27.611Z,31.1
2016-07-27T07:25:27.641Z,31.63
2016-07-27T07:26:27.671Z,31.75
2016-07-27T07:27:27.701Z,32.07
2016-07-27T07:28:27.729Z,32.22
2016-07-27T07:29:27.762Z,32.32
2016-07-27T07:30:27.792Z,32.4
2016-07-27T07:31:27.823Z,32.5
2016-07-27T07:32:27.858Z,32.56
2016-07-27T07:33:27.883Z,32.55
2016-07-27T07:34:27.915Z,32.45
2016-07-27T07:35:27.949Z,32.59
2016-07-27T07:36:27.975Z,32.32
2016-07-27T07:37:28.006Z,31.8
2016-07-27T07:38:28.036Z,31.28
2016-07-27T07:39:28.068Z,31.7
2016-07-27T07:40:28.095Z,32.22
2016-07-27T07:41:28.129Z,32.45
2016-07-27T07:42:28.158Z,32.65
2016-07-27T07:43:28.192Z,32.26
2016-07-27T07:44:28.223Z,31.7
2016-07-27T07:45:28.261Z,31.41
2016-07-27T07:46:28.282Z,31.93
2016-07-27T07:47:28.319Z,31.62
2016-07-27T07:48:28.344Z,31.72
2016-07-27T07:49:28.375Z,32.08
2016-07-27T07:50:28.405Z,32.3
2016-07-27T07:51:28.437Z,32.35
2016-07-27T07:53:28.498Z,31.38
2016-07-27T07:54:28.529Z,31.68
2016-07-27T07:55:28.559Z,31.39
2016-07-27T07:56:28.589Z,31.14
2016-07-27T07:57:28.621Z,30.92
2016-07-27T07:58:28.650Z,30.82
2016-07-27T07:59:28.679Z,30.76
2016-07-27T08:00:28.717Z,30.65
2016-07-27T08:01:28.739Z,30.69
2016-07-27T08:02:28.777Z,31.26
2016-07-27T08:03:28.802Z,31.5
2016-07-27T08:04:28.833Z,31.63
2016-07-27T08:05:28.876Z,31.63
2016-07-27T08:06:28.894Z,31.75
2016-07-27T08:08:28.958Z,31.7
2016-07-27T08:09:28.983Z,31.7
2016-07-27T08:10:29.015Z,31.69
2016-07-27T08:11:29.048Z,31.66
2016-07-27T08:12:29.077Z,31.38
2016-07-27T08:13:29.105Z,31.28
2016-07-27T08:14:29.135Z,31.36
2016-07-27T08:15:29.164Z,31.34
2016-07-27T08:16:29.197Z,31.47
2016-07-27T08:17:29.228Z,31.48
2016-07-27T08:18:29.256Z,31.38
2016-07-27T08:19:29.288Z,31.47
2016-07-27T08:20:29.319Z,31.48
2016-07-27T08:21:29.347Z,31.23
2016-07-27T08:23:29.405Z,30.91
2016-07-27T08:24:29.438Z,30.79
2016-07-27T08:25:29.473Z,30.79
2016-07-27T08:26:29.499Z,30.72
2016-07-27T08:27:29.529Z,30.62
2016-07-27T08:28:29.562Z,30.57
2016-07-27T08:29:29.590Z,30.58
2016-07-27T08:30:29.625Z,30.61
2016-07-27T08:31:29.649Z,30.57
2016-07-27T08:32:29.680Z,30.47
2016-07-27T08:33:29.710Z,30.53
2016-07-27T08:34:29.739Z,30.49
2016-07-27T08:35:29.776Z,30.34
2016-07-27T08:36:29.802Z,30.34
2016-07-27T08:37:29.833Z,30.26
2016-07-27T08:38:29.862Z,30.26
2016-07-27T08:39:29.890Z,30.22
2016-07-27T08:40:29.922Z,30.16
2016-07-27T08:41:29.951Z,30.17
2016-07-27T08:42:29.984Z,30.13
2016-07-27T08:43:30.017Z,30.13
2016-07-27T08:44:30.043Z,30.1
2016-07-27T08:45:30.073Z,29.98
2016-07-27T08:46:30.104Z,29.87
2016-07-27T08:47:30.132Z,29.86
2016-07-27T08:48:30.164Z,29.82
2016-07-27T08:49:30.194Z,29.78
2016-07-27T08:50:30.223Z,29.78
2016-07-27T08:51:30.259Z,29.85
2016-07-27T08:53:30.311Z,29.79
2016-07-27T08:54:30.345Z,29.67
2016-07-27T08:55:30.374Z,29.73
2016-07-27T08:56:30.405Z,29.57
2016-07-27T08:57:30.440Z,29.57
2016-07-27T08:58:30.462Z,29.41
2016-07-27T08:59:30.495Z,29.43
2016-07-27T09:00:30.521Z,29.46
2016-07-27T09:01:30.556Z,29.43
2016-07-27T09:02:30.584Z,29.37
2016-07-27T09:03:30.615Z,29.3
2016-07-27T09:04:30.648Z,29.33
2016-07-27T09:05:30.674Z,29.3
2016-07-27T09:06:30.702Z,29.24
2016-07-27T09:08:30.766Z,29.12
2016-07-27T09:09:30.793Z,29.15
2016-07-27T09:10:30.821Z,29.16
2016-07-27T09:11:30.854Z,29.15
2016-07-27T09:12:30.882Z,29.11
2016-07-27T09:13:30.915Z,29.12
2016-07-27T09:14:30.944Z,29.08
2016-07-27T09:15:30.977Z,29.06
2016-07-27T09:16:31.005Z,28.95
2016-07-27T09:17:31.034Z,29
2016-07-27T09:18:31.066Z,28.89
2016-07-27T09:19:31.094Z,28.89
2016-07-27T09:20:31.125Z,29.05
2016-07-27T09:21:31.157Z,28.95
2016-07-27T09:22:31.185Z,28.92
2016-07-27T09:23:31.215Z,28.88
2016-07-27T09:24:31.244Z,28.86
2016-07-27T09:25:31.274Z,28.86
2016-07-27T09:26:31.304Z,28.88
2016-07-27T09:27:31.333Z,28.88
2016-07-27T09:28:31.364Z,28.86
2016-07-27T09:29:31.392Z,28.8
2016-07-27T09:30:31.426Z,28.88
2016-07-27T09:31:31.453Z,28.8
2016-07-27T09:32:31.486Z,28.74
2016-07-27T09:33:31.517Z,28.73
2016-07-27T09:34:31.545Z,28.71
2016-07-27T09:35:31.575Z,28.76
2016-07-27T09:36:31.605Z,28.73
2016-07-27T09:37:31.635Z,28.7
2016-07-27T09:38:31.661Z,28.67
2016-07-27T09:39:31.693Z,28.66
2016-07-27T09:40:31.721Z,28.61
2016-07-27T09:41:31.754Z,28.66
2016-07-27T09:42:31.784Z,28.66
2016-07-27T09:43:31.813Z,28.67
2016-07-27T09:44:31.844Z,28.67
2016-07-27T09:45:31.884Z,28.67
2016-07-27T09:46:31.902Z,28.7
2016-07-27T09:47:31.932Z,28.7
2016-07-27T09:48:31.962Z,28.78
2016-07-27T09:49:31.991Z,28.68
2016-07-27T09:50:32.022Z,28.71
2016-07-27T09:51:32.050Z,28.77
2016-07-27T09:52:32.083Z,28.73
2016-07-27T09:53:32.110Z,28.68
2016-07-27T09:54:32.138Z,28.68
2016-07-27T09:55:32.171Z,28.71
2016-07-27T09:56:32.202Z,28.61
2016-07-27T09:57:32.231Z,28.71
2016-07-27T09:58:32.261Z,28.68
2016-07-27T09:59:32.287Z,28.64
2016-07-27T10:00:32.321Z,28.66
2016-07-27T10:01:32.347Z,28.7
2016-07-27T10:02:32.379Z,28.68
2016-07-27T10:03:32.410Z,28.66
2016-07-27T10:04:32.438Z,28.62
2016-07-27T10:05:32.469Z,28.64
2016-07-27T10:06:32.500Z,28.66
2016-07-27T10:07:32.531Z,28.61
2016-07-27T10:08:32.557Z,28.68
2016-07-27T10:09:32.591Z,28.71
2016-07-27T10:10:32.618Z,28.7
2016-07-27T10:11:32.648Z,28.68
2016-07-27T10:12:32.679Z,28.71
2016-07-27T10:13:32.709Z,28.73
2016-07-27T10:14:32.740Z,28.7
2016-07-27T10:15:32.767Z,28.67
2016-07-27T10:16:32.800Z,28.61
2016-07-27T10:17:32.829Z,28.62
2016-07-27T10:18:32.864Z,28.66
2016-07-27T10:19:32.888Z,28.66
2016-07-27T10:20:32.914Z,28.66
2016-07-27T10:21:32.948Z,28.71
2016-07-27T10:22:32.985Z,28.73
2016-07-27T10:23:33.006Z,28.76
2016-07-27T10:24:33.038Z,28.76
2016-07-27T10:25:33.066Z,28.76
2016-07-27T10:26:33.103Z,28.77
2016-07-27T10:27:33.127Z,28.76
2016-07-27T10:28:33.155Z,28.71
2016-07-27T10:29:33.191Z,28.71
2016-07-27T10:30:33.214Z,28.73
2016-07-27T10:31:33.246Z,28.64
2016-07-27T10:32:33.283Z,28.61
2016-07-27T10:33:33.305Z,28.55
2016-07-27T10:34:33.336Z,28.55
2016-07-27T10:35:33.364Z,28.49
2016-07-27T10:36:33.396Z,28.52
2016-07-27T10:37:33.422Z,28.54
2016-07-27T10:38:33.455Z,28.51
2016-07-27T10:39:33.486Z,28.59
2016-07-27T10:40:33.512Z,28.62
2016-07-27T10:41:33.554Z,28.64
2016-07-27T10:42:33.572Z,28.66
2016-07-27T10:43:33.605Z,28.66
2016-07-27T10:44:33.634Z,28.58
2016-07-27T10:45:33.664Z,28.62
2016-07-27T10:46:33.693Z,28.58
2016-07-27T10:47:33.723Z,28.61
2016-07-27T10:48:33.752Z,28.66
2016-07-27T10:49:33.780Z,28.64
2016-07-27T10:50:33.813Z,28.66
2016-07-27T10:52:33.874Z,28.66
2016-07-27T10:53:33.905Z,28.66
2016-07-27T10:54:33.936Z,28.61
2016-07-27T10:55:33.961Z,28.61
2016-07-27T10:56:33.992Z,28.71
2016-07-27T10:57:34.026Z,28.61
2016-07-27T10:58:34.050Z,28.61
2016-07-27T10:59:34.081Z,28.61
2016-07-27T11:00:34.111Z,28.56
2016-07-27T11:01:34.140Z,28.67
2016-07-27T11:02:34.169Z,28.61
2016-07-27T11:03:34.200Z,28.62
2016-07-27T11:04:34.228Z,28.66
2016-07-27T11:05:34.262Z,28.58
2016-07-27T11:06:34.295Z,28.59
2016-07-27T11:07:34.321Z,28.61
2016-07-27T11:08:34.355Z,28.56
2016-07-27T11:09:34.378Z,28.54
2016-07-27T11:10:34.406Z,28.58
2016-07-27T11:11:34.440Z,28.51
2016-07-27T11:12:34.470Z,28.48
2016-07-27T11:13:34.496Z,28.59
2016-07-27T11:14:34.530Z,28.52
2016-07-27T11:15:34.556Z,28.58
2016-07-27T11:16:34.587Z,28.58
2016-07-27T11:17:34.618Z,28.64
2016-07-27T11:18:34.646Z,28.61
2016-07-27T11:19:34.679Z,28.64
2016-07-27T11:20:34.708Z,28.66
2016-07-27T11:21:34.739Z,28.61
2016-07-27T11:22:34.769Z,28.56
2016-07-27T11:23:34.801Z,28.61
2016-07-27T11:24:34.827Z,28.58
2016-07-27T11:25:34.856Z,28.56
2016-07-27T11:26:34.886Z,28.59
2016-07-27T11:27:34.915Z,28.58
2016-07-27T11:28:34.945Z,28.62
2016-07-27T11:29:34.976Z,28.66
2016-07-27T11:30:35.008Z,28.8
2016-07-27T11:31:35.033Z,28.71
2016-07-27T11:32:35.064Z,28.71
2016-07-27T11:33:35.095Z,28.73
2016-07-27T11:34:35.125Z,28.68
2016-07-27T11:35:35.153Z,28.76
2016-07-27T11:36:35.185Z,28.7
2016-07-27T11:37:35.258Z,28.74
2016-07-27T11:38:35.254Z,28.71
2016-07-27T11:39:35.273Z,28.73
2016-07-27T11:40:35.301Z,28.71
2016-07-27T11:41:35.333Z,28.77
2016-07-27T11:42:35.362Z,28.67
2016-07-27T11:43:35.399Z,28.68
2016-07-27T11:44:35.423Z,28.68
2016-07-27T11:45:35.454Z,28.76
2016-07-27T11:46:35.484Z,28.77
2016-07-27T11:47:35.511Z,28.76
2016-07-27T11:48:35.541Z,28.7
2016-07-27T11:49:35.569Z,28.64
2016-07-27T11:50:35.603Z,28.64
2016-07-27T11:51:35.631Z,28.61
2016-07-27T11:52:35.660Z,28.54
2016-07-27T11:53:35.691Z,28.58
2016-07-27T11:54:35.720Z,28.51
2016-07-27T11:55:35.755Z,28.52
2016-07-27T11:56:35.782Z,28.54
2016-07-27T11:57:35.809Z,28.43
2016-07-27T11:58:35.836Z,28.44
2016-07-27T11:59:35.876Z,28.54
2016-07-27T12:00:35.897Z,28.4
2016-07-27T12:01:35.928Z,28.43
2016-07-27T12:02:35.955Z,28.43
2016-07-27T12:03:35.987Z,28.43
2016-07-27T12:04:36.018Z,28.41
2016-07-27T12:05:36.049Z,28.43
2016-07-27T12:06:36.079Z,28.41
2016-07-27T12:07:36.108Z,28.31
2016-07-27T12:08:36.143Z,28.37
2016-07-27T12:09:36.165Z,28.37
2016-07-27T12:10:36.197Z,28.4
2016-07-27T12:11:36.227Z,28.3
2016-07-27T12:12:36.254Z,28.36
2016-07-27T12:13:36.284Z,28.25
2016-07-27T12:14:36.316Z,28.34
2016-07-27T12:15:36.351Z,28.27
2016-07-27T12:16:36.373Z,28.3
2016-07-27T12:17:36.404Z,28.41
2016-07-27T12:18:37.132Z,28.39
2016-07-27T12:19:36.465Z,28.36
2016-07-27T12:20:36.491Z,28.39
2016-07-27T12:21:36.523Z,28.4
2016-07-27T12:22:36.553Z,28.46
2016-07-27T12:23:36.581Z,28.41
2016-07-27T12:24:36.612Z,28.39
2016-07-27T12:25:36.642Z,28.33
2016-07-27T12:26:36.671Z,28.29
2016-07-27T12:27:36.698Z,28.27
2016-07-27T12:28:36.732Z,28.25
2016-07-27T12:29:36.759Z,28.22
2016-07-27T12:30:36.792Z,28.19
2016-07-27T12:31:36.816Z,28.25
2016-07-27T12:32:36.847Z,28.25
2016-07-27T12:33:36.880Z,28.24
2016-07-27T12:34:36.915Z,28.22
2016-07-27T12:35:36.936Z,28.19
2016-07-27T12:36:36.969Z,28.07
2016-07-27T12:37:36.996Z,28.04
2016-07-27T12:38:37.031Z,28.03
2016-07-27T12:39:37.056Z,28.06
2016-07-27T12:40:37.090Z,28.14
2016-07-27T12:41:37.117Z,28.14
2016-07-27T12:42:37.144Z,28.11
2016-07-27T12:43:37.176Z,28.03
2016-07-27T12:44:37.204Z,27.99
2016-07-27T12:45:37.237Z,27.99
2016-07-27T12:46:37.262Z,28.06
2016-07-27T12:47:37.292Z,27.97
2016-07-27T12:48:37.326Z,27.99
2016-07-27T12:49:37.352Z,27.93
2016-07-27T12:50:37.380Z,27.85
2016-07-27T12:51:37.412Z,27.84
2016-07-27T12:52:37.445Z,27.81
2016-07-27T12:53:37.471Z,27.75
2016-07-27T12:54:37.501Z,27.65
2016-07-27T12:55:38.230Z,27.6
2016-07-27T12:56:37.568Z,27.5
2016-07-27T12:57:37.588Z,27.6
2016-07-27T12:58:37.620Z,27.51
2016-07-27T12:59:37.663Z,27.51
2016-07-27T13:00:37.686Z,27.49
2016-07-27T13:01:37.709Z,27.57
2016-07-27T13:02:37.735Z,27.5
2016-07-27T13:03:37.764Z,27.6
2016-07-27T13:04:37.797Z,27.66
2016-07-27T13:05:37.830Z,27.75
2016-07-27T13:06:37.853Z,27.75
2016-07-27T13:07:37.895Z,27.81
2016-07-27T13:08:37.915Z,27.78
2016-07-27T13:09:37.945Z,27.79
2016-07-27T13:10:37.974Z,27.74
2016-07-27T13:11:37.999Z,27.74
2016-07-27T13:12:38.040Z,27.77